createdAt,value
2023-03-18T00:01:15.579Z,101076.38
2023-03-18T00:03:42.645Z,101076.96
2023-03-18T00:06:12.499Z,101077.00
2023-03-18T00:08:40.691Z,101077.06
2023-03-18T00:11:10.657Z,101079.19
2023-03-18T00:13:37.383Z,101061.70
2023-03-18T00:16:06.354Z,101058.80
2023-03-18T00:18:34.608Z,101068.72
2023-03-18T00:21:01.792Z,101069.81
2023-03-18T00:23:29.187Z,101065.31
2023-03-18T00:25:57.147Z,101063.27
2023-03-18T00:28:24.156Z,101060.71
2023-03-18T00:30:51.087Z,101058.86
2023-03-18T00:33:18.453Z,101054.02
2023-03-18T00:35:46.253Z,101054.42
2023-03-18T00:38:20.612Z,101049.40
2023-03-18T00:41:00.737Z,101048.71
2023-03-18T00:43:33.312Z,101048.78
2023-03-18T00:46:00.567Z,101042.36
2023-03-18T00:48:27.418Z,101042.05
2023-03-18T00:50:54.124Z,101037.05
2023-03-18T00:53:20.996Z,101035.18
2023-03-18T00:55:47.560Z,101030.71
2023-03-18T00:58:14.256Z,101027.85
2023-03-18T01:00:40.977Z,101033.30
2023-03-18T01:03:08.086Z,101028.67
2023-03-18T01:05:35.533Z,101026.98
2023-03-18T01:08:04.261Z,101026.69
2023-03-18T01:10:31.540Z,101025.52
2023-03-18T01:12:58.622Z,101022.48
2023-03-18T01:15:25.385Z,101016.41
2023-03-18T01:17:56.175Z,101014.72
2023-03-18T01:20:24.370Z,101008.34
2023-03-18T01:22:52.640Z,101012.38
2023-03-18T01:25:19.920Z,101013.13
2023-03-18T01:27:50.176Z,101015.45
2023-03-18T01:30:17.269Z,101010.95
2023-03-18T01:32:44.260Z,101011.00
2023-03-18T01:35:11.899Z,101010.86
2023-03-18T01:37:41.412Z,101012.59
2023-03-18T01:40:11.734Z,101009.48
2023-03-18T01:42:39.841Z,101011.08
2023-03-18T01:45:17.459Z,101004.98
2023-03-18T01:47:46.068Z,101005.91
2023-03-18T01:50:16.478Z,101004.85
2023-03-18T01:52:44.477Z,101001.90
2023-03-18T01:55:16.522Z,101001.58
2023-03-18T01:57:44.052Z,101002.50
2023-03-18T02:00:12.035Z,101002.31
2023-03-18T02:02:44.940Z,101003.01
2023-03-18T02:05:16.917Z,100999.16
2023-03-18T02:07:45.107Z,101000.05
2023-03-18T02:10:16.005Z,101004.95
2023-03-18T02:12:46.301Z,101004.80
2023-03-18T02:15:20.982Z,101004.80
2023-03-18T02:17:56.639Z,101000.80
2023-03-18T02:20:42.009Z,100999.58
2023-03-18T02:23:51.860Z,100999.95
2023-03-18T02:26:40.764Z,100999.14
2023-03-18T02:29:09.358Z,101001.79
2023-03-18T02:31:47.197Z,100997.67
2023-03-18T02:34:14.896Z,100993.54
2023-03-18T02:36:42.139Z,100997.39
2023-03-18T02:39:14.397Z,100993.45
2023-03-18T02:41:41.874Z,100990.15
2023-03-18T02:44:10.936Z,100989.83
2023-03-18T02:46:54.816Z,100983.24
2023-03-18T02:49:24.286Z,100977.05
2023-03-18T02:51:51.292Z,100981.09
2023-03-18T02:54:22.644Z,100976.96
2023-03-18T02:56:50.349Z,100979.48
2023-03-18T02:59:18.323Z,100976.23
2023-03-18T03:01:47.416Z,100967.36
2023-03-18T03:04:15.550Z,100966.70
2023-03-18T03:06:42.927Z,100966.21
2023-03-18T03:09:13.217Z,100966.42
2023-03-18T03:11:40.855Z,100953.52
2023-03-18T03:14:15.051Z,100963.89
2023-03-18T03:16:43.054Z,100965.17
2023-03-18T03:19:09.891Z,100963.66
2023-03-18T03:21:37.136Z,100962.67
2023-03-18T03:24:05.040Z,100963.77
2023-03-18T03:26:31.580Z,100962.92
2023-03-18T03:28:58.519Z,100963.83
2023-03-18T03:31:26.084Z,100960.40
2023-03-18T03:33:53.242Z,100960.45
2023-03-18T03:36:20.635Z,100965.38
2023-03-18T03:38:47.726Z,100964.02
2023-03-18T03:41:15.249Z,100968.20
2023-03-18T03:43:42.183Z,100972.94
2023-03-18T03:46:09.891Z,100969.62
2023-03-18T03:48:37.822Z,100968.46
2023-03-18T03:51:07.043Z,100973.77
2023-03-18T03:53:35.439Z,100976.94
2023-03-18T03:56:03.485Z,100975.60
2023-03-18T03:58:30.680Z,100978.74
2023-03-18T04:00:57.711Z,100971.96
2023-03-18T04:03:24.951Z,100970.25
2023-03-18T04:05:52.241Z,100973.42
2023-03-18T04:08:20.238Z,100970.66
2023-03-18T04:10:47.020Z,100972.08
2023-03-18T04:13:13.996Z,100973.52
2023-03-18T04:15:40.735Z,100979.30
2023-03-18T04:18:09.998Z,100977.74
2023-03-18T04:20:38.290Z,100977.75
2023-03-18T04:23:10.397Z,100977.05
2023-03-18T04:25:36.840Z,100983.34
2023-03-18T04:28:04.122Z,100984.55
2023-03-18T04:30:31.707Z,100986.83
2023-03-18T04:33:07.715Z,100986.16
2023-03-18T04:35:35.148Z,100987.58
2023-03-18T04:38:01.990Z,100986.91
2023-03-18T04:40:29.291Z,100985.91
2023-03-18T04:42:56.031Z,100987.17
2023-03-18T04:45:24.387Z,100989.16
2023-03-18T04:47:51.562Z,100988.19
2023-03-18T04:50:18.503Z,100984.77
2023-03-18T04:52:45.833Z,100982.39
2023-03-18T04:55:16.108Z,100977.20
2023-03-18T04:57:42.900Z,100979.24
2023-03-18T05:00:16.710Z,100977.75
2023-03-18T05:02:43.843Z,100977.98
2023-03-18T05:05:11.082Z,100980.15
2023-03-18T05:07:44.384Z,100984.88
2023-03-18T05:10:13.513Z,100981.94
2023-03-18T05:12:40.120Z,100979.86
2023-03-18T05:15:07.695Z,100982.34
2023-03-18T05:17:36.026Z,100982.86
2023-03-18T05:20:03.805Z,100974.17
2023-03-18T05:22:30.680Z,100952.48
2023-03-18T05:25:05.664Z,100967.85
2023-03-18T05:27:32.667Z,100968.73
2023-03-18T05:30:08.632Z,100969.72
2023-03-18T05:32:48.695Z,100969.67
2023-03-18T05:35:15.744Z,100967.87
2023-03-18T05:37:46.305Z,100970.56
2023-03-18T05:40:14.159Z,100968.73
2023-03-18T05:42:55.967Z,100972.42
2023-03-18T05:45:30.629Z,100971.73
2023-03-18T05:47:57.702Z,100972.65
2023-03-18T05:50:34.958Z,100982.89
2023-03-18T05:53:04.063Z,100983.16
2023-03-18T05:55:33.518Z,100977.81
2023-03-18T05:58:01.392Z,100971.60
2023-03-18T06:00:29.476Z,100970.36
2023-03-18T06:02:58.596Z,100966.33
2023-03-18T06:05:26.538Z,100972.30
2023-03-18T06:07:54.715Z,100975.14
2023-03-18T06:10:22.441Z,100972.23
2023-03-18T06:12:51.629Z,100974.55
2023-03-18T06:15:18.917Z,100962.63
2023-03-18T06:17:45.836Z,100973.30
2023-03-18T06:20:14.057Z,100967.73
2023-03-18T06:22:41.498Z,100962.16
2023-03-18T06:25:09.386Z,100960.30
2023-03-18T06:27:38.376Z,100966.42
2023-03-18T06:30:05.722Z,100961.30
2023-03-18T06:32:34.277Z,100961.59
2023-03-18T06:35:01.117Z,100955.59
2023-03-18T06:37:28.052Z,100968.81
2023-03-18T06:39:54.759Z,100973.20
2023-03-18T06:42:22.252Z,100968.77
2023-03-18T06:44:59.312Z,100973.70
2023-03-18T06:47:34.060Z,100976.96
2023-03-18T06:50:01.009Z,100976.21
2023-03-18T06:52:31.318Z,100973.72
2023-03-18T06:55:03.103Z,100972.30
2023-03-18T06:57:29.991Z,100972.52
2023-03-18T06:59:56.642Z,100975.83
2023-03-18T07:02:24.448Z,100975.28
2023-03-18T07:04:51.740Z,100976.50
2023-03-18T07:07:18.966Z,100979.30
2023-03-18T07:09:45.924Z,100979.38
2023-03-18T07:12:13.354Z,100983.64
2023-03-18T07:14:40.788Z,100983.40
2023-03-18T07:17:09.793Z,100983.27
2023-03-18T07:19:36.432Z,100985.29
2023-03-18T07:22:04.080Z,100987.67
2023-03-18T07:24:32.069Z,100990.52
2023-03-18T07:26:58.982Z,100994.77
2023-03-18T07:29:25.567Z,100992.88
2023-03-18T07:31:52.385Z,100991.64
2023-03-18T07:34:19.340Z,100990.66
2023-03-18T07:36:47.061Z,100993.34
2023-03-18T07:39:14.278Z,100990.62
2023-03-18T07:41:40.989Z,100990.70
2023-03-18T07:44:07.591Z,100999.03
2023-03-18T07:46:34.490Z,100992.41
2023-03-18T07:49:01.388Z,101000.15
2023-03-18T07:51:27.987Z,100993.98
2023-03-18T07:53:54.709Z,100992.95
2023-03-18T07:56:21.359Z,100997.41
2023-03-18T07:58:47.874Z,100991.84
2023-03-18T08:01:17.873Z,100989.67
2023-03-18T08:03:46.042Z,100988.94
2023-03-18T08:06:14.776Z,100981.02
2023-03-18T08:08:42.129Z,100984.59
2023-03-18T08:11:09.229Z,100982.43
2023-03-18T08:13:37.824Z,100979.37
2023-03-18T08:16:05.267Z,100978.80
2023-03-18T08:18:31.968Z,100977.90
2023-03-18T08:20:58.875Z,100974.24
2023-03-18T08:23:25.766Z,100977.48
2023-03-18T08:25:52.333Z,100980.25
2023-03-18T08:28:19.076Z,100973.77
2023-03-18T08:30:46.362Z,100972.97
2023-03-18T08:33:12.946Z,100968.02
2023-03-18T08:35:41.295Z,100968.14
2023-03-18T08:38:08.720Z,100965.19
2023-03-18T08:40:35.313Z,100962.59
2023-03-18T08:43:01.966Z,100964.09
2023-03-18T08:45:28.761Z,100960.75
2023-03-18T08:47:55.572Z,100953.60
2023-03-18T08:50:24.076Z,100951.90
2023-03-18T08:52:51.678Z,100951.21
2023-03-18T08:55:20.739Z,100943.71
2023-03-18T08:57:47.447Z,100942.02
2023-03-18T09:00:14.871Z,100940.46
2023-03-18T09:02:41.411Z,100936.00
2023-03-18T09:05:08.152Z,100935.20
2023-03-18T09:07:35.826Z,100931.36
2023-03-18T09:10:03.776Z,100926.39
2023-03-18T09:12:30.273Z,100928.64
2023-03-18T09:14:57.283Z,100934.96
2023-03-18T09:17:50.959Z,100919.29
2023-03-18T09:20:18.840Z,100923.87
2023-03-18T09:22:45.829Z,100919.92
2023-03-18T09:25:13.268Z,100925.39
2023-03-18T09:27:40.276Z,100919.91
2023-03-18T09:30:08.104Z,100913.84
2023-03-18T09:32:34.751Z,100916.03
2023-03-18T09:35:01.685Z,100914.14
2023-03-18T09:37:28.199Z,100910.54
2023-03-18T09:39:55.516Z,100910.97
2023-03-18T09:42:36.761Z,100913.31
2023-03-18T09:45:29.508Z,100911.02
2023-03-18T09:48:41.243Z,100908.29
2023-03-18T09:51:19.315Z,100908.42
2023-03-18T09:53:56.426Z,100912.27
2023-03-18T09:56:33.945Z,100915.78
2023-03-18T09:59:05.598Z,100917.38
2023-03-18T10:01:37.256Z,100918.84
2023-03-18T10:04:35.106Z,100918.40
2023-03-18T10:07:11.487Z,100914.91
2023-03-18T10:09:46.221Z,100910.73
2023-03-18T10:12:32.212Z,100906.41
2023-03-18T10:15:24.373Z,100900.77
2023-03-18T10:17:59.520Z,100898.68
2023-03-18T10:20:52.106Z,100899.05
2023-03-18T10:23:37.577Z,100895.41
2023-03-18T10:26:13.162Z,100889.89
2023-03-18T10:28:45.460Z,100888.33
2023-03-18T10:31:25.056Z,100885.58
2023-03-18T10:34:01.651Z,100880.34
2023-03-18T10:36:38.244Z,100872.60
2023-03-18T10:39:15.732Z,100876.66
2023-03-18T10:41:47.077Z,100869.04
2023-03-18T10:44:33.687Z,100870.59
2023-03-18T10:47:32.180Z,100875.31
2023-03-18T10:50:38.362Z,100876.09
2023-03-18T10:53:20.639Z,100871.33
2023-03-18T10:56:01.869Z,100866.16
2023-03-18T10:58:29.010Z,100854.25
2023-03-18T11:00:55.707Z,100865.29
2023-03-18T11:03:33.151Z,100860.66
2023-03-18T11:06:03.965Z,100862.52
2023-03-18T11:08:38.985Z,100859.73
2023-03-18T11:11:16.927Z,100859.10
2023-03-18T11:13:55.384Z,100855.92
2023-03-18T11:16:29.856Z,100849.46
2023-03-18T11:18:58.163Z,100847.09
2023-03-18T11:21:26.214Z,100846.91
2023-03-18T11:24:17.494Z,100833.65
2023-03-18T11:26:57.397Z,100842.69
2023-03-18T11:29:32.723Z,100843.65
2023-03-18T11:32:01.930Z,100838.49
2023-03-18T11:34:31.655Z,100838.53
2023-03-18T11:37:07.731Z,100838.57
2023-03-18T11:39:37.216Z,100837.11
2023-03-18T11:42:17.114Z,100832.41
2023-03-18T11:44:43.852Z,100829.73
2023-03-18T11:47:23.764Z,100830.08
2023-03-18T11:49:50.438Z,100829.13
2023-03-18T11:52:26.133Z,100824.05
2023-03-18T11:55:21.419Z,100823.58
2023-03-18T11:58:17.856Z,100819.99
2023-03-18T12:00:51.948Z,100816.27
2023-03-18T12:03:48.108Z,100816.81
2023-03-18T12:06:28.000Z,100812.28
2023-03-18T12:09:18.509Z,100810.24
2023-03-18T12:11:50.270Z,100805.59
2023-03-18T12:14:25.319Z,100803.35
2023-03-18T12:17:14.847Z,100799.35
2023-03-18T12:20:06.910Z,100798.44
2023-03-18T12:23:00.258Z,100803.63
2023-03-18T12:25:34.332Z,100796.37
2023-03-18T12:28:32.362Z,100795.06
2023-03-18T12:31:06.247Z,100792.42
2023-03-18T12:33:50.919Z,100791.24
2023-03-18T12:36:51.262Z,100787.42
2023-03-18T12:39:35.900Z,100782.23
2023-03-18T12:42:13.095Z,100777.36
2023-03-18T12:44:57.126Z,100776.73
2023-03-18T12:47:46.348Z,100774.46
2023-03-18T12:50:25.621Z,100771.22
2023-03-18T12:53:01.932Z,100772.44
2023-03-18T12:55:31.072Z,100774.52
2023-03-18T12:58:11.664Z,100773.93
2023-03-18T13:00:54.264Z,100773.12
2023-03-18T13:03:42.770Z,100772.34
2023-03-18T13:06:26.016Z,100769.61
2023-03-18T13:09:34.162Z,100767.98
2023-03-18T13:12:21.815Z,100766.46
2023-03-18T13:15:17.316Z,100764.86
2023-03-18T13:17:49.128Z,100769.41
2023-03-18T13:20:23.261Z,100769.30
2023-03-18T13:22:57.785Z,100763.66
2023-03-18T13:25:47.995Z,100770.39
2023-03-18T13:28:38.886Z,100760.20
2023-03-18T13:31:23.009Z,100756.69
2023-03-18T13:33:58.429Z,100756.38
2023-03-18T13:36:44.754Z,100755.77
2023-03-18T13:39:42.445Z,100749.39
2023-03-18T13:42:35.653Z,100751.29
2023-03-18T13:45:15.985Z,100744.16
2023-03-18T13:47:43.844Z,100741.26
2023-03-18T13:50:19.365Z,100739.05
2023-03-18T13:52:47.727Z,100739.06
2023-03-18T13:55:34.583Z,100735.56
2023-03-18T13:58:05.481Z,100737.98
2023-03-18T14:00:39.897Z,100737.08
2023-03-18T14:03:07.409Z,100733.25
2023-03-18T14:05:40.518Z,100729.77
2023-03-18T14:08:38.391Z,100724.37
2023-03-18T14:11:26.480Z,100717.95
2023-03-18T14:14:01.783Z,100718.92
2023-03-18T14:16:36.866Z,100714.39
2023-03-18T14:19:18.619Z,100716.56
2023-03-18T14:21:52.292Z,100714.08
2023-03-18T14:24:18.749Z,100715.52
2023-03-18T14:27:09.853Z,100714.56
2023-03-18T14:29:36.502Z,100712.95
2023-03-18T14:32:07.849Z,100709.02
2023-03-18T14:34:54.482Z,100704.45
2023-03-18T14:37:55.915Z,100704.78
2023-03-18T14:40:22.858Z,100700.54
2023-03-18T14:42:59.698Z,100701.84
2023-03-18T14:45:35.969Z,100697.31
2023-03-18T14:48:19.971Z,100683.08
2023-03-18T14:50:55.217Z,100689.79
2023-03-18T14:53:37.172Z,100686.25
2023-03-18T14:56:04.857Z,100681.95
2023-03-18T14:58:33.703Z,100684.75
2023-03-18T15:01:11.622Z,100682.58
2023-03-18T15:03:42.771Z,100684.42
2023-03-18T15:06:17.826Z,100682.48
2023-03-18T15:08:52.188Z,100684.73
2023-03-18T15:11:21.349Z,100688.30
2023-03-18T15:13:48.189Z,100690.54
2023-03-18T15:16:19.161Z,100691.58
2023-03-18T15:18:52.400Z,100697.02
2023-03-18T15:21:31.872Z,100694.33
2023-03-18T15:24:03.329Z,100696.91
2023-03-18T15:26:34.447Z,100688.63
2023-03-18T15:29:21.384Z,100691.09
2023-03-18T15:31:49.086Z,100690.41
2023-03-18T15:34:29.021Z,100677.73
2023-03-18T15:36:58.982Z,100690.50
2023-03-18T15:39:36.167Z,100690.89
2023-03-18T15:42:23.440Z,100680.17
2023-03-18T15:45:01.088Z,100688.77
2023-03-18T15:47:30.132Z,100686.77
2023-03-18T15:50:09.058Z,100686.30
2023-03-18T15:52:41.315Z,100688.66
2023-03-18T15:55:28.762Z,100690.19
2023-03-18T15:57:56.998Z,100689.13
2023-03-18T16:00:24.226Z,100692.48
2023-03-18T16:02:51.062Z,100691.67
2023-03-18T16:05:21.484Z,100690.90
2023-03-18T16:07:48.775Z,100695.32
2023-03-18T16:10:19.856Z,100698.69
2023-03-18T16:12:51.214Z,100702.56
2023-03-18T16:15:23.727Z,100704.85
2023-03-18T16:17:52.790Z,100706.30
2023-03-18T16:20:28.490Z,100710.20
2023-03-18T16:22:55.822Z,100713.18
2023-03-18T16:25:23.493Z,100715.64
2023-03-18T16:27:53.659Z,100718.30
2023-03-18T16:30:23.881Z,100718.19
2023-03-18T16:32:51.273Z,100715.27
2023-03-18T16:35:26.819Z,100717.20
2023-03-18T16:37:55.853Z,100714.84
2023-03-18T16:40:27.585Z,100713.80
2023-03-18T16:42:56.165Z,100722.31
2023-03-18T16:45:33.195Z,100718.54
2023-03-18T16:48:06.478Z,100721.86
2023-03-18T16:50:37.901Z,100723.33
2023-03-18T16:53:17.672Z,100721.33
2023-03-18T16:55:46.649Z,100718.52
2023-03-18T16:58:17.148Z,100720.80
2023-03-18T17:00:47.467Z,100721.55
2023-03-18T17:03:17.608Z,100723.15
2023-03-18T17:05:46.703Z,100727.42
2023-03-18T17:08:13.535Z,100722.11
2023-03-18T17:10:41.997Z,100724.09
2023-03-18T17:13:16.998Z,100729.07
2023-03-18T17:15:44.588Z,100733.52
2023-03-18T17:18:17.448Z,100736.54
2023-03-18T17:20:45.106Z,100737.31
2023-03-18T17:23:20.121Z,100740.32
2023-03-18T17:25:52.915Z,100740.72
2023-03-18T17:28:43.080Z,100741.52
2023-03-18T17:31:11.015Z,100746.27
2023-03-18T17:33:37.926Z,100748.36
2023-03-18T17:36:08.926Z,100749.67
2023-03-18T17:38:35.800Z,100749.75
2023-03-18T17:41:12.481Z,100746.20
2023-03-18T17:43:39.562Z,100743.79
2023-03-18T17:46:06.659Z,100744.04
2023-03-18T17:48:35.985Z,100738.84
2023-03-18T17:51:19.109Z,100726.58
2023-03-18T17:53:50.969Z,100735.34
2023-03-18T17:56:18.768Z,100739.30
2023-03-18T17:58:47.944Z,100738.06
2023-03-18T18:01:17.994Z,100738.62
2023-03-18T18:03:47.035Z,100739.13
2023-03-18T18:06:22.279Z,100736.98
2023-03-18T18:08:49.436Z,100735.85
2023-03-18T18:11:31.769Z,100727.40
2023-03-18T18:14:12.141Z,100730.00
2023-03-18T18:16:38.931Z,100726.33
2023-03-18T18:19:05.690Z,100725.62
2023-03-18T18:21:32.502Z,100725.66
2023-03-18T18:23:59.135Z,100722.34
2023-03-18T18:26:26.274Z,100724.13
2023-03-18T18:28:53.564Z,100721.45
2023-03-18T18:31:23.315Z,100719.38
2023-03-18T18:33:50.384Z,100709.30
2023-03-18T18:36:17.360Z,100721.41
2023-03-18T18:38:44.509Z,100721.42
2023-03-18T18:41:15.676Z,100725.34
2023-03-18T18:46:25.914Z,100726.16
2023-03-18T18:48:53.212Z,100729.00
2023-03-18T18:51:22.064Z,100728.96
2023-03-18T18:53:51.916Z,100729.33
2023-03-18T18:56:34.110Z,100732.88
2023-03-18T18:59:04.706Z,100731.63
2023-03-18T19:01:32.833Z,100732.16
2023-03-18T19:04:01.963Z,100732.83
2023-03-18T19:06:31.099Z,100733.58
2023-03-18T19:09:00.083Z,100730.79
2023-03-18T19:11:27.460Z,100736.63
2023-03-18T19:14:14.234Z,100736.15
2023-03-18T19:16:41.298Z,100732.65
2023-03-18T19:19:12.929Z,100732.27
2023-03-18T19:21:39.717Z,100730.86
2023-03-18T19:24:26.647Z,100728.39
2023-03-18T19:26:56.225Z,100730.48
2023-03-18T19:29:23.985Z,100730.14
2023-03-18T19:31:51.070Z,100734.52
2023-03-18T19:34:18.964Z,100738.93
2023-03-18T19:36:52.275Z,100734.54
2023-03-18T19:39:20.614Z,100735.79
2023-03-18T19:41:47.558Z,100738.55
2023-03-18T19:44:20.507Z,100737.46
2023-03-18T19:46:49.481Z,100736.23
2023-03-18T19:49:26.754Z,100735.52
2023-03-18T19:51:54.440Z,100739.17
2023-03-18T19:54:36.167Z,100736.30
2023-03-18T19:57:06.188Z,100731.38
2023-03-18T19:59:38.626Z,100729.38
2023-03-18T20:02:19.419Z,100725.11
2023-03-18T20:04:47.260Z,100727.04
2023-03-18T20:07:14.271Z,100726.39
2023-03-18T20:09:41.160Z,100728.80
2023-03-18T20:12:30.755Z,100729.96
2023-03-18T20:14:57.624Z,100730.66
2023-03-18T20:17:35.422Z,100731.67
2023-03-18T20:20:05.164Z,100726.91
2023-03-18T20:22:35.907Z,100728.15
2023-03-18T20:25:05.111Z,100731.15
2023-03-18T20:27:32.260Z,100725.36
2023-03-18T20:29:59.305Z,100728.33
2023-03-18T20:32:26.372Z,100725.35
2023-03-18T20:34:53.227Z,100725.88
2023-03-18T20:37:34.003Z,100728.52
2023-03-18T20:40:04.192Z,100729.38
2023-03-18T20:42:31.550Z,100726.08
2023-03-18T20:44:58.142Z,100730.20
2023-03-18T20:47:24.865Z,100731.77
2023-03-18T20:49:53.173Z,100727.77
2023-03-18T20:52:27.302Z,100728.21
2023-03-18T20:54:56.434Z,100730.88
2023-03-18T20:57:24.558Z,100728.95
2023-03-18T20:59:51.663Z,100731.96
2023-03-18T21:02:32.680Z,100729.66
2023-03-18T21:05:01.248Z,100732.08
2023-03-18T21:07:28.447Z,100728.18
2023-03-18T21:09:55.091Z,100728.52
2023-03-18T21:12:21.941Z,100729.34
2023-03-18T21:14:49.363Z,100732.27
2023-03-18T21:17:24.488Z,100730.34
2023-03-18T21:19:54.096Z,100730.12
2023-03-18T21:22:28.785Z,100726.02
2023-03-18T21:24:56.747Z,100727.92
2023-03-18T21:27:26.279Z,100727.54
2023-03-18T21:29:54.676Z,100726.25
2023-03-18T21:32:33.481Z,100727.23
2023-03-18T21:35:00.252Z,100726.61
2023-03-18T21:37:27.480Z,100723.85
2023-03-18T21:39:54.122Z,100721.33
2023-03-18T21:42:27.034Z,100722.67
2023-03-18T21:44:55.684Z,100721.91
2023-03-18T21:47:25.313Z,100721.49
2023-03-18T21:49:56.211Z,100717.70
2023-03-18T21:52:31.073Z,100721.65
2023-03-18T21:54:59.673Z,100717.40
2023-03-18T21:57:26.393Z,100719.48
2023-03-18T21:59:53.818Z,100716.72
2023-03-18T22:02:24.239Z,100716.27
2023-03-18T22:04:51.091Z,100716.38
2023-03-18T22:07:18.166Z,100714.55
2023-03-18T22:09:46.260Z,100710.81
2023-03-18T22:12:27.522Z,100712.20
2023-03-18T22:14:55.923Z,100713.21
2023-03-18T22:17:22.378Z,100711.77
2023-03-18T22:19:50.097Z,100712.60
2023-03-18T22:22:19.167Z,100702.55
2023-03-18T22:24:46.689Z,100711.90
2023-03-18T22:27:23.134Z,100713.45
2023-03-18T22:29:51.292Z,100718.02
2023-03-18T22:32:38.566Z,100720.42
2023-03-18T22:35:21.123Z,100722.52
2023-03-18T22:37:49.081Z,100720.02
2023-03-18T22:40:24.729Z,100719.66
2023-03-18T22:42:54.650Z,100724.90
2023-03-18T22:45:32.710Z,100725.58
2023-03-18T22:48:04.110Z,100720.88
2023-03-18T22:50:34.023Z,100720.02
2023-03-18T22:53:04.962Z,100721.08
2023-03-18T22:55:35.690Z,100722.96
2023-03-18T22:58:03.845Z,100722.09
2023-03-18T23:00:38.587Z,100723.99
2023-03-18T23:03:18.152Z,100719.77
2023-03-18T23:05:47.588Z,100721.11
2023-03-18T23:08:14.810Z,100721.58
2023-03-18T23:10:43.171Z,100693.88
2023-03-18T23:13:16.696Z,100725.32
2023-03-18T23:15:44.575Z,100725.65
2023-03-18T23:18:16.454Z,100732.98
2023-03-18T23:20:44.744Z,100727.69
2023-03-18T23:23:12.281Z,100725.20
2023-03-18T23:25:40.854Z,100724.48
2023-03-18T23:28:07.766Z,100714.28
2023-03-18T23:30:36.694Z,100730.52
2023-03-18T23:33:03.241Z,100729.81
2023-03-18T23:35:30.396Z,100730.99
2023-03-18T23:37:57.041Z,100728.97
2023-03-18T23:40:24.218Z,100727.81
2023-03-18T23:42:51.179Z,100726.75
2023-03-18T23:45:18.226Z,100723.73
2023-03-18T23:47:45.908Z,100720.64
2023-03-18T23:50:12.838Z,100706.67
2023-03-18T23:52:39.619Z,100720.54
2023-03-18T23:55:17.840Z,100720.45
2023-03-18T23:57:53.458Z,100717.98
